createdAt,value
2019-03-29T00:02:16.387Z,82.10
2019-03-29T00:04:45.264Z,82.20
2019-03-29T00:07:13.484Z,82.60
2019-03-29T00:09:41.692Z,82.90
2019-03-29T00:12:09.927Z,83.70
2019-03-29T00:14:38.126Z,83.70
2019-03-29T00:17:06.345Z,84.30
2019-03-29T00:19:34.594Z,85.50
2019-03-29T00:22:02.840Z,86.80
2019-03-29T00:24:31.067Z,86.90
2019-03-29T00:26:59.273Z,87.00
2019-03-29T00:29:27.511Z,87.40
2019-03-29T00:31:55.731Z,87.50
2019-03-29T00:34:23.943Z,87.90
2019-03-29T00:36:52.266Z,87.50
2019-03-29T00:39:20.460Z,88.00
2019-03-29T00:41:48.697Z,88.00
2019-03-29T00:44:16.901Z,87.60
2019-03-29T00:46:45.100Z,86.90
2019-03-29T00:49:13.339Z,86.50
2019-03-29T00:51:41.532Z,87.50
2019-03-29T00:54:09.741Z,88.40
2019-03-29T00:56:38.970Z,88.40
2019-03-29T00:59:07.353Z,88.60
2019-03-29T01:01:35.583Z,88.90
2019-03-29T01:04:03.812Z,89.80
2019-03-29T01:06:32.025Z,90.50
2019-03-29T01:09:00.250Z,90.00
2019-03-29T01:11:28.478Z,89.10
2019-03-29T01:13:56.685Z,89.70
2019-03-29T01:16:24.888Z,89.40
2019-03-29T01:18:53.129Z,89.90
2019-03-29T01:21:21.335Z,91.00
2019-03-29T01:23:50.002Z,91.20
2019-03-29T01:26:18.349Z,90.50
2019-03-29T01:28:46.568Z,90.50
2019-03-29T01:31:15.135Z,90.50
2019-03-29T01:33:43.446Z,90.10
2019-03-29T01:36:11.661Z,90.00
2019-03-29T01:38:39.882Z,90.10
2019-03-29T01:41:08.101Z,90.10
2019-03-29T01:43:36.319Z,89.40
2019-03-29T01:46:04.542Z,90.10
2019-03-29T01:48:32.751Z,89.50
2019-03-29T01:51:01.314Z,90.00
2019-03-29T01:53:31.863Z,89.60
2019-03-29T01:56:00.079Z,89.60
2019-03-29T01:58:28.389Z,89.10
2019-03-29T02:00:56.579Z,88.70
2019-03-29T02:03:24.789Z,87.90
2019-03-29T02:05:53.225Z,87.30
2019-03-29T02:08:34.817Z,86.90
2019-03-29T02:10:52.015Z,87.80
2019-03-29T02:13:20.223Z,87.10
2019-03-29T02:15:48.784Z,87.10
2019-03-29T02:18:17.001Z,87.10
2019-03-29T02:20:45.206Z,87.20
2019-03-29T02:23:13.415Z,86.80
2019-03-29T02:25:42.449Z,86.80
2019-03-29T02:28:11.313Z,86.90
2019-03-29T02:30:39.515Z,86.40
2019-03-29T02:33:07.732Z,86.30
2019-03-29T02:35:35.943Z,87.00
2019-03-29T02:38:04.155Z,87.70
2019-03-29T02:40:32.380Z,87.90
2019-03-29T02:43:00.584Z,88.20
2019-03-29T02:45:30.458Z,88.80
2019-03-29T02:47:58.788Z,88.10
2019-03-29T02:50:26.998Z,87.70
2019-03-29T02:52:55.205Z,87.50
2019-03-29T02:55:23.425Z,87.40
2019-03-29T02:57:51.636Z,87.30
2019-03-29T03:00:19.877Z,87.20
2019-03-29T03:02:48.075Z,87.00
2019-03-29T03:05:16.279Z,86.90
2019-03-29T03:07:44.488Z,87.10
2019-03-29T03:10:12.709Z,87.20
2019-03-29T03:12:40.920Z,87.20
2019-03-29T03:15:09.131Z,86.90
2019-03-29T03:17:37.586Z,86.10
2019-03-29T03:20:08.519Z,86.40
2019-03-29T03:22:36.996Z,86.30
2019-03-29T03:25:06.561Z,86.10
2019-03-29T03:27:34.838Z,86.10
2019-03-29T03:30:04.594Z,86.30
2019-03-29T03:32:32.816Z,86.40
2019-03-29T03:35:01.057Z,86.60
2019-03-29T03:37:29.369Z,86.80
2019-03-29T03:39:57.587Z,86.90
2019-03-29T03:42:25.798Z,86.90
2019-03-29T03:44:54.023Z,86.80
2019-03-29T03:47:22.228Z,86.90
2019-03-29T03:49:50.448Z,87.00
2019-03-29T03:52:18.666Z,87.20
2019-03-29T03:54:46.878Z,87.40
2019-03-29T03:57:15.083Z,87.50
2019-03-29T03:59:43.571Z,87.70
2019-03-29T04:02:11.780Z,87.70
2019-03-29T04:04:40.081Z,88.00
2019-03-29T04:07:08.279Z,87.90
2019-03-29T04:09:49.354Z,87.60
2019-03-29T04:12:06.497Z,88.00
2019-03-29T04:14:34.705Z,87.90
2019-03-29T04:17:02.938Z,88.00
2019-03-29T04:19:31.213Z,88.80
2019-03-29T04:21:59.440Z,89.40
2019-03-29T04:24:28.941Z,89.40
2019-03-29T04:26:57.157Z,89.70
2019-03-29T04:29:25.356Z,89.10
2019-03-29T04:31:53.573Z,88.50
2019-03-29T04:34:21.842Z,88.90
2019-03-29T04:36:50.036Z,89.20
2019-03-29T04:39:18.241Z,88.70
2019-03-29T04:41:46.468Z,88.40
2019-03-29T04:44:14.692Z,88.50
2019-03-29T04:46:42.901Z,89.00
2019-03-29T04:49:11.107Z,89.30
2019-03-29T04:51:39.323Z,89.70
2019-03-29T04:54:07.553Z,89.20
2019-03-29T04:56:35.761Z,89.10
2019-03-29T04:59:03.972Z,88.80
2019-03-29T05:01:32.196Z,88.80
2019-03-29T05:04:00.441Z,88.60
2019-03-29T05:06:28.673Z,88.60
2019-03-29T05:08:56.891Z,88.90
2019-03-29T05:11:25.121Z,89.30
2019-03-29T05:13:53.307Z,89.50
2019-03-29T05:16:21.530Z,89.50
2019-03-29T05:18:49.741Z,89.10
2019-03-29T05:21:17.983Z,88.90
2019-03-29T05:23:46.176Z,89.10
2019-03-29T05:26:14.426Z,89.40
2019-03-29T05:28:42.625Z,89.50
2019-03-29T05:31:10.843Z,89.30
2019-03-29T05:33:39.060Z,88.60
2019-03-29T05:36:07.264Z,89.20
2019-03-29T05:38:35.480Z,89.90
2019-03-29T05:41:03.687Z,89.10
2019-03-29T05:43:31.899Z,89.20
2019-03-29T05:46:00.108Z,89.10
2019-03-29T05:48:28.375Z,89.10
2019-03-29T05:50:56.617Z,89.20
2019-03-29T05:53:24.896Z,90.00
2019-03-29T05:55:53.100Z,89.80
2019-03-29T05:58:21.333Z,89.10
2019-03-29T06:00:49.567Z,88.80
2019-03-29T06:03:17.783Z,88.40
2019-03-29T06:05:46.020Z,88.10
2019-03-29T06:08:14.224Z,87.70
2019-03-29T06:10:48.800Z,87.70
2019-03-29T06:13:12.422Z,87.10
2019-03-29T06:15:40.935Z,86.60
2019-03-29T06:18:09.149Z,85.60
2019-03-29T06:20:37.452Z,84.70
2019-03-29T06:23:05.664Z,82.70
2019-03-29T06:25:33.888Z,81.50
2019-03-29T06:28:02.177Z,81.30
2019-03-29T06:30:31.381Z,80.80
2019-03-29T06:32:59.783Z,81.20
2019-03-29T06:35:29.390Z,81.70
2019-03-29T06:37:57.628Z,80.90
2019-03-29T06:40:25.915Z,80.20
2019-03-29T06:42:54.144Z,78.80
2019-03-29T06:45:22.371Z,77.60
2019-03-29T06:47:50.619Z,76.70
2019-03-29T06:50:18.805Z,76.90
2019-03-29T06:52:47.008Z,73.20
2019-03-29T06:55:15.232Z,70.10
2019-03-29T06:57:43.441Z,66.80
2019-03-29T07:00:11.666Z,62.90
2019-03-29T07:02:39.892Z,59.00
2019-03-29T07:05:08.136Z,55.30
2019-03-29T07:07:36.354Z,51.20
2019-03-29T07:10:06.052Z,48.80
2019-03-29T07:12:34.259Z,46.60
2019-03-29T07:15:02.530Z,45.80
2019-03-29T07:17:30.835Z,43.70
2019-03-29T07:19:59.052Z,42.90
2019-03-29T07:22:27.265Z,42.60
2019-03-29T07:24:55.480Z,42.70
2019-03-29T07:27:23.699Z,41.80
2019-03-29T07:29:51.901Z,41.30
2019-03-29T07:32:20.153Z,39.80
2019-03-29T07:34:49.306Z,37.20
2019-03-29T07:37:17.754Z,36.00
2019-03-29T07:39:45.953Z,34.20
2019-03-29T07:42:14.168Z,32.10
2019-03-29T07:44:42.376Z,30.70
2019-03-29T07:47:10.600Z,30.00
2019-03-29T07:49:38.804Z,29.00
2019-03-29T07:52:07.032Z,28.60
2019-03-29T07:54:35.244Z,28.80
2019-03-29T07:57:03.620Z,28.20
2019-03-29T07:59:31.819Z,27.80
2019-03-29T08:02:00.038Z,29.20
2019-03-29T08:04:28.265Z,28.80
2019-03-29T08:06:56.472Z,29.00
2019-03-29T08:09:24.685Z,28.90
2019-03-29T08:11:52.891Z,30.00
2019-03-29T08:14:21.412Z,30.00
2019-03-29T08:16:49.616Z,29.50
2019-03-29T08:19:17.823Z,28.40
2019-03-29T08:21:46.025Z,27.40
2019-03-29T08:24:14.244Z,28.60
2019-03-29T08:26:42.448Z,28.10
2019-03-29T08:29:10.700Z,27.80
2019-03-29T08:31:38.948Z,27.60
2019-03-29T08:34:07.168Z,28.50
2019-03-29T08:36:35.451Z,28.50
2019-03-29T08:39:05.155Z,27.80
2019-03-29T08:41:33.372Z,27.70
2019-03-29T08:44:01.602Z,28.50
2019-03-29T08:46:29.804Z,27.50
2019-03-29T08:48:58.027Z,25.90
2019-03-29T08:51:26.228Z,26.10
2019-03-29T08:53:54.447Z,26.80
2019-03-29T08:56:22.664Z,27.00
2019-03-29T08:58:50.872Z,26.30
2019-03-29T09:01:19.770Z,26.00
2019-03-29T09:04:02.703Z,27.40
2019-03-29T09:06:18.175Z,26.50
2019-03-29T09:08:46.383Z,26.30
2019-03-29T09:11:14.583Z,26.10
2019-03-29T09:13:42.790Z,28.30
2019-03-29T09:16:11.055Z,29.20
2019-03-29T09:18:39.295Z,28.90
2019-03-29T09:21:07.508Z,29.40
2019-03-29T09:23:35.718Z,28.00
2019-03-29T09:26:03.929Z,26.50
2019-03-29T09:28:33.072Z,27.30
2019-03-29T09:31:01.336Z,25.60
2019-03-29T09:33:29.559Z,27.30
2019-03-29T09:35:57.775Z,28.00
2019-03-29T09:38:26.132Z,26.70
2019-03-29T09:40:58.898Z,25.30
2019-03-29T09:43:26.591Z,25.40
2019-03-29T09:45:53.511Z,26.30
2019-03-29T09:48:21.734Z,26.30
2019-03-29T09:50:50.932Z,26.30
2019-03-29T09:53:19.536Z,26.70
2019-03-29T09:55:47.835Z,29.00
2019-03-29T09:58:16.699Z,31.20
2019-03-29T10:00:45.307Z,32.50
2019-03-29T10:03:13.583Z,33.10
2019-03-29T10:05:41.822Z,32.50
2019-03-29T10:08:10.049Z,34.70
2019-03-29T10:10:38.257Z,36.00
2019-03-29T10:13:06.550Z,37.30
2019-03-29T10:15:34.763Z,36.30
2019-03-29T10:18:02.978Z,38.10
2019-03-29T10:20:31.176Z,38.90
2019-03-29T10:22:59.397Z,38.10
2019-03-29T10:25:27.603Z,38.50
2019-03-29T10:27:55.814Z,37.90
2019-03-29T10:30:30.199Z,36.40
2019-03-29T10:32:58.434Z,37.80
2019-03-29T10:35:26.649Z,35.30
2019-03-29T10:37:54.855Z,31.40
2019-03-29T10:40:23.084Z,27.60
2019-03-29T10:42:57.489Z,26.00
2019-03-29T10:45:21.220Z,25.60
2019-03-29T10:47:49.424Z,26.20
2019-03-29T10:50:17.644Z,26.60
2019-03-29T10:52:45.857Z,29.10
2019-03-29T10:55:14.064Z,29.90
2019-03-29T10:57:42.277Z,30.00
2019-03-29T11:00:12.770Z,31.50
2019-03-29T11:02:40.956Z,30.20
2019-03-29T11:05:09.156Z,32.00
2019-03-29T11:07:37.364Z,32.60
2019-03-29T11:10:06.835Z,30.30
2019-03-29T11:12:35.091Z,29.30
2019-03-29T11:15:06.657Z,27.70
2019-03-29T11:17:34.621Z,27.00
2019-03-29T11:20:03.105Z,26.80
2019-03-29T11:22:31.326Z,28.60
2019-03-29T11:24:59.543Z,28.40
2019-03-29T11:27:27.736Z,28.30
2019-03-29T11:29:55.991Z,26.00
2019-03-29T11:32:24.189Z,27.30
2019-03-29T11:34:52.404Z,26.20
2019-03-29T11:37:20.615Z,26.10
2019-03-29T11:39:48.820Z,25.70
2019-03-29T11:42:17.027Z,26.40
2019-03-29T11:44:45.253Z,26.60
2019-03-29T11:47:13.452Z,26.30
2019-03-29T11:49:41.687Z,26.60
2019-03-29T11:52:09.889Z,26.00
2019-03-29T11:54:38.127Z,25.00
2019-03-29T11:57:06.337Z,25.90
2019-03-29T11:59:34.536Z,26.60
2019-03-29T12:02:02.753Z,24.60
2019-03-29T12:04:30.956Z,24.40
2019-03-29T12:06:59.178Z,25.10
2019-03-29T12:09:27.389Z,24.70
2019-03-29T12:11:55.627Z,23.90
2019-03-29T12:14:23.828Z,24.20
2019-03-29T12:16:52.048Z,24.60
2019-03-29T12:19:20.251Z,25.00
2019-03-29T12:21:48.464Z,26.60
2019-03-29T12:24:16.683Z,27.40
2019-03-29T12:26:44.883Z,26.90
2019-03-29T12:29:13.108Z,26.10
2019-03-29T12:31:41.312Z,25.50
2019-03-29T12:34:09.536Z,24.30
2019-03-29T12:36:37.732Z,24.40
2019-03-29T12:39:07.019Z,24.70
2019-03-29T12:41:35.226Z,25.00
2019-03-29T12:44:03.578Z,25.70
2019-03-29T12:46:32.411Z,26.10
2019-03-29T12:49:00.821Z,27.20
2019-03-29T12:51:29.024Z,26.30
2019-03-29T12:53:57.239Z,25.50
2019-03-29T12:56:25.468Z,26.20
2019-03-29T12:58:53.670Z,26.20
2019-03-29T13:01:21.953Z,25.10
2019-03-29T13:03:50.162Z,24.20
2019-03-29T13:06:18.368Z,25.00
2019-03-29T13:08:46.586Z,24.50
2019-03-29T13:11:14.793Z,25.00
2019-03-29T13:13:42.999Z,25.50
2019-03-29T13:16:11.220Z,24.40
2019-03-29T13:18:39.425Z,24.40
2019-03-29T13:21:07.647Z,25.20
2019-03-29T13:23:35.849Z,26.20
2019-03-29T13:26:04.056Z,25.60
2019-03-29T13:28:32.274Z,25.20
2019-03-29T13:31:00.480Z,23.90
2019-03-29T13:33:41.840Z,22.90
2019-03-29T13:36:10.044Z,23.00
2019-03-29T13:38:38.265Z,22.00
2019-03-29T13:41:07.117Z,22.60
2019-03-29T13:43:35.573Z,23.70
2019-03-29T13:46:03.784Z,22.40
2019-03-29T13:48:31.988Z,23.10
2019-03-29T13:51:00.236Z,22.80
2019-03-29T13:53:28.440Z,21.70
2019-03-29T13:55:56.668Z,22.40
2019-03-29T13:58:24.879Z,22.20
2019-03-29T14:00:53.088Z,21.50
2019-03-29T14:03:21.308Z,21.60
2019-03-29T14:05:49.587Z,22.80
2019-03-29T14:08:17.793Z,25.50
2019-03-29T14:10:46.102Z,25.40
2019-03-29T14:13:14.378Z,25.90
2019-03-29T14:15:42.586Z,26.60
2019-03-29T14:18:10.784Z,25.50
2019-03-29T14:20:38.995Z,24.30
2019-03-29T14:23:07.212Z,25.50
2019-03-29T14:25:35.426Z,26.20
2019-03-29T14:28:03.628Z,25.80
2019-03-29T14:30:31.837Z,25.90
2019-03-29T14:33:00.056Z,26.20
2019-03-29T14:35:28.597Z,26.00
2019-03-29T14:37:56.891Z,26.70
2019-03-29T14:40:25.583Z,26.50
2019-03-29T14:42:53.792Z,25.80
2019-03-29T14:45:22.004Z,26.40
2019-03-29T14:47:50.204Z,25.00
2019-03-29T14:50:18.483Z,25.30
2019-03-29T14:52:46.684Z,26.20
2019-03-29T14:55:14.976Z,26.50
2019-03-29T14:57:43.199Z,25.90
2019-03-29T15:00:12.574Z,25.30
2019-03-29T15:02:40.783Z,23.70
2019-03-29T15:05:09.003Z,24.00
2019-03-29T15:07:37.212Z,24.10
2019-03-29T15:10:06.662Z,24.00
2019-03-29T15:12:34.904Z,23.70
2019-03-29T15:15:06.297Z,24.00
2019-03-29T15:17:34.576Z,23.60
2019-03-29T15:20:03.245Z,22.80
2019-03-29T15:22:33.138Z,22.90
2019-03-29T15:25:00.864Z,23.70
2019-03-29T15:27:29.146Z,24.30
2019-03-29T15:29:57.343Z,24.80
2019-03-29T15:32:25.569Z,26.70
2019-03-29T15:34:53.782Z,27.00
2019-03-29T15:37:21.996Z,28.20
2019-03-29T15:39:50.199Z,26.80
2019-03-29T15:42:20.599Z,26.70
2019-03-29T15:44:48.376Z,27.50
2019-03-29T15:47:16.580Z,27.80
2019-03-29T15:49:55.303Z,28.20
2019-03-29T15:52:14.735Z,27.50
2019-03-29T15:54:42.972Z,27.90
2019-03-29T15:57:11.220Z,28.30
2019-03-29T15:59:39.440Z,27.20
2019-03-29T16:02:07.641Z,27.10
2019-03-29T16:04:35.861Z,27.30
2019-03-29T16:07:04.391Z,27.20
2019-03-29T16:09:32.589Z,27.60
2019-03-29T16:12:00.805Z,27.30
2019-03-29T16:14:29.060Z,27.60
2019-03-29T16:16:57.243Z,28.20
2019-03-29T16:19:25.443Z,29.00
2019-03-29T16:21:53.662Z,28.90
2019-03-29T16:24:21.870Z,30.00
2019-03-29T16:26:50.084Z,30.00
2019-03-29T16:29:18.296Z,31.10
2019-03-29T16:31:46.492Z,32.50
2019-03-29T16:34:14.724Z,34.20
2019-03-29T16:36:42.943Z,34.80
2019-03-29T16:39:11.139Z,35.70
2019-03-29T16:41:39.358Z,36.00
2019-03-29T16:44:07.580Z,36.50
2019-03-29T16:46:35.804Z,37.40
2019-03-29T16:49:04.001Z,37.40
2019-03-29T16:51:32.229Z,37.80
2019-03-29T16:54:00.433Z,37.10
2019-03-29T16:56:28.735Z,38.00
2019-03-29T16:58:56.987Z,39.40
2019-03-29T17:01:25.195Z,39.90
2019-03-29T17:03:53.404Z,40.00
2019-03-29T17:06:21.628Z,40.60
2019-03-29T17:08:49.824Z,40.70
2019-03-29T17:11:18.033Z,41.00
2019-03-29T17:13:46.248Z,41.70
2019-03-29T17:16:14.455Z,41.50
2019-03-29T17:18:42.671Z,42.00
2019-03-29T17:21:11.027Z,42.20
2019-03-29T17:23:39.408Z,43.80
2019-03-29T17:26:07.615Z,43.30
2019-03-29T17:28:35.869Z,43.90
2019-03-29T17:31:05.692Z,44.30
2019-03-29T17:33:33.915Z,44.50
2019-03-29T17:36:02.127Z,45.10
2019-03-29T17:38:30.343Z,45.80
2019-03-29T17:40:58.549Z,46.00
2019-03-29T17:43:26.761Z,46.30
2019-03-29T17:45:54.978Z,46.60
2019-03-29T17:48:23.205Z,47.20
2019-03-29T17:50:51.424Z,47.50
2019-03-29T17:53:19.648Z,47.70
2019-03-29T17:55:47.874Z,47.80
2019-03-29T17:58:16.073Z,47.90
2019-03-29T18:00:44.294Z,48.60
2019-03-29T18:03:12.496Z,49.70
2019-03-29T18:05:40.713Z,51.60
2019-03-29T18:08:08.924Z,51.10
2019-03-29T18:10:37.148Z,52.50
2019-03-29T18:13:05.355Z,53.10
2019-03-29T18:15:33.575Z,53.60
2019-03-29T18:18:01.803Z,54.40
2019-03-29T18:20:30.003Z,54.20
2019-03-29T18:22:58.236Z,54.30
2019-03-29T18:25:26.446Z,55.10
2019-03-29T18:27:54.659Z,56.10
2019-03-29T18:30:39.342Z,56.40
2019-03-29T18:33:07.819Z,57.30
2019-03-29T18:35:36.099Z,58.00
2019-03-29T18:38:04.323Z,58.90
2019-03-29T18:40:32.812Z,58.80
2019-03-29T18:43:01.041Z,59.20
2019-03-29T18:45:29.243Z,59.10
2019-03-29T18:47:57.453Z,59.10
2019-03-29T18:50:25.813Z,59.80
2019-03-29T18:52:54.016Z,59.90
2019-03-29T18:55:22.236Z,61.10
2019-03-29T18:57:50.474Z,61.40
2019-03-29T19:00:21.929Z,61.60
2019-03-29T19:02:50.176Z,61.50
2019-03-29T19:05:23.843Z,62.30
2019-03-29T19:07:52.072Z,62.20
2019-03-29T19:10:20.323Z,63.10
2019-03-29T19:12:48.536Z,63.20
2019-03-29T19:15:16.791Z,63.50
2019-03-29T19:17:44.996Z,63.50
2019-03-29T19:20:26.549Z,64.80
2019-03-29T19:22:43.161Z,65.00
2019-03-29T19:25:11.368Z,65.30
2019-03-29T19:27:40.160Z,66.40
2019-03-29T19:30:11.280Z,66.30
2019-03-29T19:32:39.838Z,66.80
2019-03-29T19:35:08.091Z,67.50
2019-03-29T19:37:37.160Z,67.80
2019-03-29T19:40:07.015Z,69.30
2019-03-29T19:42:35.226Z,68.40
2019-03-29T19:45:03.806Z,68.70
2019-03-29T19:47:32.002Z,69.20
2019-03-29T19:50:00.402Z,69.00
2019-03-29T19:52:28.751Z,68.90
2019-03-29T19:54:56.949Z,69.90
2019-03-29T19:57:25.198Z,70.40
2019-03-29T19:59:53.457Z,70.50
2019-03-29T20:02:21.677Z,71.10
2019-03-29T20:04:49.880Z,71.80
2019-03-29T20:07:20.382Z,72.00
2019-03-29T20:09:48.046Z,72.50
2019-03-29T20:12:16.237Z,72.70
2019-03-29T20:14:44.448Z,72.90
2019-03-29T20:17:26.674Z,73.00
2019-03-29T20:19:42.602Z,73.10
2019-03-29T20:22:10.796Z,74.00
2019-03-29T20:24:39.014Z,74.40
2019-03-29T20:27:07.221Z,74.20
2019-03-29T20:29:35.441Z,74.60
2019-03-29T20:32:03.643Z,75.90
2019-03-29T20:34:31.847Z,75.20
2019-03-29T20:37:00.056Z,75.40
2019-03-29T20:39:28.324Z,75.30
2019-03-29T20:41:56.595Z,75.50
2019-03-29T20:44:24.820Z,76.10
2019-03-29T20:46:53.015Z,76.40
2019-03-29T20:49:21.228Z,75.40
2019-03-29T20:51:49.441Z,77.30
2019-03-29T20:54:17.635Z,77.20
2019-03-29T20:56:45.860Z,78.10
2019-03-29T20:59:14.111Z,77.50
2019-03-29T21:01:42.372Z,77.90
2019-03-29T21:04:10.606Z,77.50
2019-03-29T21:06:38.808Z,77.30
2019-03-29T21:09:07.570Z,77.00
2019-03-29T21:11:35.819Z,76.80
2019-03-29T21:14:04.044Z,77.30
2019-03-29T21:16:32.276Z,78.10
2019-03-29T21:19:00.495Z,78.10
2019-03-29T21:21:28.759Z,78.90
2019-03-29T21:23:56.979Z,79.20
2019-03-29T21:26:25.208Z,79.50
2019-03-29T21:28:53.462Z,80.40
2019-03-29T21:31:22.707Z,79.60
2019-03-29T21:33:51.092Z,79.90
2019-03-29T21:36:19.305Z,80.30
2019-03-29T21:38:47.762Z,79.70
2019-03-29T21:41:15.971Z,80.60
2019-03-29T21:43:44.181Z,81.10
2019-03-29T21:46:12.391Z,81.20
2019-03-29T21:48:40.607Z,81.10
2019-03-29T21:51:08.868Z,81.00
2019-03-29T21:53:38.791Z,81.20
2019-03-29T21:56:06.995Z,80.80
2019-03-29T21:58:35.248Z,81.10
2019-03-29T22:01:03.464Z,81.50
2019-03-29T22:03:31.681Z,82.10
2019-03-29T22:05:59.893Z,82.00
2019-03-29T22:08:28.112Z,82.30
2019-03-29T22:10:56.579Z,81.90
2019-03-29T22:13:24.792Z,81.70
2019-03-29T22:15:53.006Z,81.90
2019-03-29T22:18:21.266Z,82.40
2019-03-29T22:20:49.504Z,83.00
2019-03-29T22:23:17.752Z,83.60
2019-03-29T22:25:45.980Z,83.30
2019-03-29T22:28:14.315Z,82.70
2019-03-29T22:30:42.570Z,83.00
2019-03-29T22:33:10.792Z,83.30
2019-03-29T22:35:38.996Z,83.90
2019-03-29T22:38:07.211Z,84.10
2019-03-29T22:40:35.418Z,84.10
2019-03-29T22:43:03.648Z,83.80
2019-03-29T22:45:31.853Z,84.90
2019-03-29T22:48:00.047Z,84.40
2019-03-29T22:50:28.260Z,85.60
2019-03-29T22:52:56.480Z,85.80
2019-03-29T22:55:24.692Z,85.50
2019-03-29T22:57:52.909Z,86.30
2019-03-29T23:00:29.004Z,85.80
2019-03-29T23:02:57.219Z,86.30
2019-03-29T23:05:25.439Z,85.70
2019-03-29T23:07:53.661Z,86.50
2019-03-29T23:10:21.859Z,86.30
2019-03-29T23:12:50.057Z,86.60
2019-03-29T23:15:18.264Z,87.00
2019-03-29T23:17:46.465Z,86.20
2019-03-29T23:20:14.709Z,85.40
2019-03-29T23:22:42.911Z,85.60
2019-03-29T23:25:11.108Z,85.50
2019-03-29T23:27:39.320Z,86.40
2019-03-29T23:30:07.544Z,86.30
2019-03-29T23:32:35.762Z,86.70
2019-03-29T23:35:06.083Z,87.10
2019-03-29T23:37:34.317Z,86.80
2019-03-29T23:40:02.617Z,87.20
2019-03-29T23:42:30.828Z,87.50
2019-03-29T23:44:59.051Z,87.60
2019-03-29T23:47:27.264Z,87.80
2019-03-29T23:49:55.470Z,88.10
2019-03-29T23:52:23.672Z,88.50
2019-03-29T23:54:51.900Z,88.80
2019-03-29T23:57:20.113Z,88.80
2019-03-29T23:59:48.321Z,89.50
